createdAt,value
2019-03-13T00:00:09.504Z,995.71
2019-03-13T00:01:09.485Z,995.72
2019-03-13T00:02:09.486Z,995.77
2019-03-13T00:03:09.464Z,995.73
2019-03-13T00:04:09.457Z,995.71
2019-03-13T00:05:09.442Z,995.88
2019-03-13T00:06:09.427Z,995.78
2019-03-13T00:07:09.437Z,995.82
2019-03-13T00:08:09.413Z,995.70
2019-03-13T00:09:09.393Z,995.71
2019-03-13T00:10:09.385Z,995.69
2019-03-13T00:11:09.374Z,995.63
2019-03-13T00:12:09.385Z,995.66
2019-03-13T00:13:09.351Z,995.64
2019-03-13T00:14:09.345Z,995.69
2019-03-13T00:15:09.333Z,995.66
2019-03-13T00:16:09.325Z,995.70
2019-03-13T00:17:09.335Z,995.64
2019-03-13T00:18:09.305Z,995.67
2019-03-13T00:19:09.294Z,995.67
2019-03-13T00:20:09.292Z,995.56
2019-03-13T00:21:09.273Z,995.54
2019-03-13T00:22:09.279Z,995.53
2019-03-13T00:23:09.254Z,995.41
2019-03-13T00:24:09.247Z,995.29
2019-03-13T00:25:09.235Z,995.34
2019-03-13T00:26:09.218Z,995.37
2019-03-13T00:27:09.221Z,995.34
2019-03-13T00:28:09.195Z,995.34
2019-03-13T00:29:09.187Z,995.42
2019-03-13T00:30:09.177Z,995.44
2019-03-13T00:31:09.176Z,995.45
2019-03-13T00:32:09.177Z,995.41
2019-03-13T00:33:09.235Z,995.27
2019-03-13T00:34:09.137Z,995.25
2019-03-13T00:35:09.122Z,995.28
2019-03-13T00:36:09.109Z,995.31
2019-03-13T00:37:09.120Z,995.36
2019-03-13T00:38:09.089Z,995.36
2019-03-13T00:39:09.088Z,995.30
2019-03-13T00:40:09.236Z,995.25
2019-03-13T00:41:09.064Z,995.33
2019-03-13T00:42:09.074Z,995.22
2019-03-13T00:43:09.043Z,995.26
2019-03-13T00:44:09.038Z,995.26
2019-03-13T00:45:09.015Z,995.34
2019-03-13T00:46:09.013Z,995.31
2019-03-13T00:47:08.998Z,995.31
2019-03-13T00:48:08.996Z,995.35
2019-03-13T00:49:08.977Z,995.37
2019-03-13T00:50:08.970Z,995.31
2019-03-13T00:51:08.953Z,995.37
2019-03-13T00:52:08.946Z,995.39
2019-03-13T00:53:08.943Z,995.29
2019-03-13T00:54:08.923Z,995.28
2019-03-13T00:55:08.914Z,995.26
2019-03-13T00:56:08.904Z,995.22
2019-03-13T00:57:08.887Z,995.19
2019-03-13T00:58:08.903Z,995.25
2019-03-13T00:59:08.872Z,995.16
2019-03-13T01:00:08.860Z,995.23
2019-03-13T01:01:08.848Z,995.18
2019-03-13T01:02:08.840Z,995.22
2019-03-13T01:03:08.842Z,995.18
2019-03-13T01:04:08.820Z,995.21
2019-03-13T01:05:08.809Z,995.20
2019-03-13T01:06:08.794Z,995.24
2019-03-13T01:07:08.787Z,995.19
2019-03-13T01:08:08.792Z,995.24
2019-03-13T01:09:08.771Z,995.29
2019-03-13T01:10:08.749Z,995.27
2019-03-13T01:11:08.744Z,995.22
2019-03-13T01:12:08.732Z,995.22
2019-03-13T01:13:08.739Z,995.19
2019-03-13T01:14:08.717Z,995.18
2019-03-13T01:15:08.703Z,995.18
2019-03-13T01:16:08.698Z,995.23
2019-03-13T01:17:08.680Z,995.25
2019-03-13T01:18:08.688Z,995.27
2019-03-13T01:19:08.659Z,995.18
2019-03-13T01:20:08.659Z,995.16
2019-03-13T01:21:08.640Z,995.11
2019-03-13T01:22:08.629Z,995.32
2019-03-13T01:23:08.629Z,995.41
2019-03-13T01:24:08.616Z,995.68
2019-03-13T01:25:08.601Z,995.61
2019-03-13T01:26:08.586Z,995.53
2019-03-13T01:27:08.577Z,995.48
2019-03-13T01:28:08.582Z,995.55
2019-03-13T01:29:08.560Z,995.63
2019-03-13T01:30:08.540Z,995.60
2019-03-13T01:31:08.533Z,995.63
2019-03-13T01:32:08.527Z,995.70
2019-03-13T01:33:08.522Z,995.56
2019-03-13T01:34:08.500Z,995.62
2019-03-13T01:35:08.487Z,995.57
2019-03-13T01:36:08.483Z,995.59
2019-03-13T01:37:08.468Z,995.61
2019-03-13T01:38:08.471Z,995.56
2019-03-13T01:39:08.445Z,995.63
2019-03-13T01:40:08.439Z,995.63
2019-03-13T01:41:08.426Z,995.64
2019-03-13T01:42:08.417Z,995.56
2019-03-13T01:43:08.429Z,995.65
2019-03-13T01:44:08.392Z,995.62
2019-03-13T01:45:08.383Z,995.59
2019-03-13T01:46:08.373Z,995.73
2019-03-13T01:47:08.364Z,995.62
2019-03-13T01:48:08.349Z,995.53
2019-03-13T01:49:08.359Z,995.54
2019-03-13T01:50:08.332Z,995.53
2019-03-13T01:51:08.322Z,995.48
2019-03-13T01:52:08.313Z,995.52
2019-03-13T01:53:08.302Z,995.54
2019-03-13T01:54:08.304Z,995.62
2019-03-13T01:55:08.285Z,995.61
2019-03-13T01:56:08.264Z,995.54
2019-03-13T01:57:08.254Z,995.66
2019-03-13T01:58:08.243Z,995.63
2019-03-13T01:59:08.247Z,995.61
2019-03-13T02:00:08.223Z,995.61
2019-03-13T02:01:08.215Z,995.65
2019-03-13T02:02:08.200Z,995.65
2019-03-13T02:03:08.196Z,995.62
2019-03-13T02:04:08.200Z,995.58
2019-03-13T02:05:08.172Z,995.59
2019-03-13T02:06:08.158Z,995.62
2019-03-13T02:07:08.154Z,995.61
2019-03-13T02:08:08.142Z,995.76
2019-03-13T02:09:08.139Z,995.70
2019-03-13T02:10:08.118Z,995.71
2019-03-13T02:11:08.108Z,995.72
2019-03-13T02:12:08.108Z,995.59
2019-03-13T02:13:08.086Z,995.65
2019-03-13T02:14:08.102Z,995.71
2019-03-13T02:15:08.062Z,995.65
2019-03-13T02:16:08.059Z,995.63
2019-03-13T02:17:08.046Z,995.59
2019-03-13T02:18:08.042Z,995.55
2019-03-13T02:19:08.040Z,995.60
2019-03-13T02:20:08.020Z,995.51
2019-03-13T02:21:08.011Z,995.56
2019-03-13T02:22:07.992Z,995.43
2019-03-13T02:23:07.986Z,995.51
2019-03-13T02:24:07.988Z,995.45
2019-03-13T02:25:07.973Z,995.47
2019-03-13T02:26:07.953Z,995.40
2019-03-13T02:27:07.943Z,995.38
2019-03-13T02:28:07.931Z,995.37
2019-03-13T02:29:07.952Z,995.34
2019-03-13T02:30:07.910Z,995.33
2019-03-13T02:31:07.905Z,995.28
2019-03-13T02:32:07.898Z,995.30
2019-03-13T02:33:07.888Z,995.30
2019-03-13T02:34:07.876Z,995.23
2019-03-13T02:35:07.873Z,995.20
2019-03-13T02:36:07.848Z,995.14
2019-03-13T02:37:07.839Z,995.16
2019-03-13T02:38:07.823Z,995.11
2019-03-13T02:39:07.826Z,995.09
2019-03-13T02:40:07.828Z,995.13
2019-03-13T02:41:07.798Z,995.15
2019-03-13T02:42:07.783Z,995.09
2019-03-13T02:43:07.774Z,995.13
2019-03-13T02:44:07.772Z,995.18
2019-03-13T02:45:07.771Z,995.14
2019-03-13T02:46:07.740Z,995.16
2019-03-13T02:47:07.731Z,995.10
2019-03-13T02:48:07.734Z,995.13
2019-03-13T02:49:07.709Z,995.08
2019-03-13T02:50:07.734Z,995.09
2019-03-13T02:51:07.697Z,995.13
2019-03-13T02:52:07.683Z,995.12
2019-03-13T02:53:07.671Z,995.14
2019-03-13T02:54:07.663Z,995.13
2019-03-13T02:55:07.648Z,995.10
2019-03-13T02:56:07.651Z,995.13
2019-03-13T02:57:07.636Z,995.18
2019-03-13T02:58:07.614Z,995.18
2019-03-13T02:59:07.615Z,995.20
2019-03-13T03:00:07.613Z,995.24
2019-03-13T03:01:07.616Z,995.24
2019-03-13T03:02:07.574Z,995.29
2019-03-13T03:03:07.566Z,995.32
2019-03-13T03:04:07.550Z,995.25
2019-03-13T03:05:07.545Z,995.33
2019-03-13T03:06:07.542Z,995.39
2019-03-13T03:07:07.525Z,995.38
2019-03-13T03:08:07.514Z,995.37
2019-03-13T03:09:07.500Z,995.56
2019-03-13T03:10:07.493Z,995.45
2019-03-13T03:11:07.522Z,995.53
2019-03-13T03:12:07.470Z,995.54
2019-03-13T03:13:07.460Z,995.69
2019-03-13T03:14:07.446Z,995.72
2019-03-13T03:15:07.448Z,995.74
2019-03-13T03:16:07.429Z,995.78
2019-03-13T03:17:07.434Z,995.85
2019-03-13T03:18:07.408Z,995.89
2019-03-13T03:19:07.406Z,995.92
2019-03-13T03:20:07.382Z,996.16
2019-03-13T03:21:07.379Z,996.21
2019-03-13T03:22:07.375Z,996.24
2019-03-13T03:23:07.349Z,996.18
2019-03-13T03:24:07.344Z,996.28
2019-03-13T03:25:07.333Z,996.21
2019-03-13T03:26:07.317Z,996.26
2019-03-13T03:27:07.344Z,996.25
2019-03-13T03:28:07.305Z,996.26
2019-03-13T03:29:07.293Z,996.30
2019-03-13T03:30:07.286Z,996.35
2019-03-13T03:31:07.278Z,996.43
2019-03-13T03:32:07.254Z,996.41
2019-03-13T03:33:07.268Z,996.40
2019-03-13T03:34:07.240Z,996.45
2019-03-13T03:35:07.229Z,996.44
2019-03-13T03:36:07.220Z,996.51
2019-03-13T03:37:07.205Z,996.51
2019-03-13T03:38:07.209Z,996.51
2019-03-13T03:39:07.183Z,996.46
2019-03-13T03:40:07.178Z,996.55
2019-03-13T03:41:07.163Z,996.55
2019-03-13T03:42:07.158Z,996.58
2019-03-13T03:43:07.178Z,996.65
2019-03-13T03:44:07.137Z,996.72
2019-03-13T03:45:07.132Z,996.73
2019-03-13T03:46:07.113Z,996.86
2019-03-13T03:47:07.093Z,996.81
2019-03-13T03:48:07.122Z,996.83
2019-03-13T03:49:07.088Z,996.77
2019-03-13T03:50:07.091Z,996.94
2019-03-13T03:51:07.057Z,996.99
2019-03-13T03:52:07.045Z,997.00
2019-03-13T03:53:07.038Z,997.03
2019-03-13T03:54:07.039Z,997.02
2019-03-13T03:55:07.026Z,997.09
2019-03-13T03:56:07.015Z,997.16
2019-03-13T03:57:06.992Z,997.13
2019-03-13T03:58:06.980Z,997.10
2019-03-13T03:59:06.992Z,997.20
2019-03-13T04:00:06.969Z,997.22
2019-03-13T04:01:06.947Z,997.27
2019-03-13T04:02:06.937Z,997.34
2019-03-13T04:03:06.929Z,997.31
2019-03-13T04:04:06.934Z,997.34
2019-03-13T04:05:06.952Z,997.37
2019-03-13T04:06:06.901Z,997.36
2019-03-13T04:07:06.888Z,997.39
2019-03-13T04:08:06.883Z,997.39
2019-03-13T04:09:06.902Z,997.41
2019-03-13T04:10:06.864Z,997.50
2019-03-13T04:11:06.843Z,997.58
2019-03-13T04:12:06.833Z,997.49
2019-03-13T04:13:06.825Z,997.53
2019-03-13T04:14:06.817Z,997.58
2019-03-13T04:15:06.816Z,997.66
2019-03-13T04:16:06.793Z,997.68
2019-03-13T04:17:06.785Z,997.67
2019-03-13T04:18:06.775Z,997.73
2019-03-13T04:19:06.763Z,997.71
2019-03-13T04:20:06.767Z,997.78
2019-03-13T04:21:06.739Z,997.75
2019-03-13T04:22:06.732Z,997.81
2019-03-13T04:23:06.716Z,997.73
2019-03-13T04:24:06.715Z,997.79
2019-03-13T04:25:06.712Z,997.81
2019-03-13T04:26:06.697Z,997.80
2019-03-13T04:27:06.679Z,997.92
2019-03-13T04:28:06.677Z,997.84
2019-03-13T04:29:06.655Z,997.87
2019-03-13T04:30:06.691Z,997.89
2019-03-13T04:31:06.634Z,997.81
2019-03-13T04:32:06.624Z,997.85
2019-03-13T04:33:06.618Z,997.85
2019-03-13T04:34:06.606Z,997.85
2019-03-13T04:35:06.620Z,997.89
2019-03-13T04:36:06.586Z,997.91
2019-03-13T04:37:06.584Z,997.98
2019-03-13T04:38:06.575Z,998.01
2019-03-13T04:39:06.643Z,998.00
2019-03-13T04:40:06.538Z,998.04
2019-03-13T04:41:06.548Z,998.02
2019-03-13T04:42:06.519Z,998.02
2019-03-13T04:43:06.517Z,998.07
2019-03-13T04:44:06.505Z,998.08
2019-03-13T04:45:06.488Z,998.11
2019-03-13T04:46:06.491Z,998.18
2019-03-13T04:47:06.466Z,998.11
2019-03-13T04:48:06.454Z,998.15
2019-03-13T04:49:06.469Z,998.21
2019-03-13T04:50:06.435Z,998.25
2019-03-13T04:51:06.445Z,998.19
2019-03-13T04:52:06.419Z,998.25
2019-03-13T04:53:06.409Z,998.25
2019-03-13T04:54:06.393Z,998.18
2019-03-13T04:55:06.387Z,998.24
2019-03-13T04:56:06.387Z,998.25
2019-03-13T04:57:06.365Z,998.34
2019-03-13T04:58:06.352Z,998.32
2019-03-13T04:59:06.341Z,998.43
2019-03-13T05:00:06.331Z,998.33
2019-03-13T05:01:06.330Z,998.43
2019-03-13T05:02:06.320Z,998.40
2019-03-13T05:03:06.298Z,998.34
2019-03-13T05:04:06.288Z,998.39
2019-03-13T05:05:06.276Z,998.36
2019-03-13T05:06:06.281Z,998.42
2019-03-13T05:07:06.259Z,998.37
2019-03-13T05:08:06.246Z,998.42
2019-03-13T05:09:06.261Z,998.35
2019-03-13T05:10:06.224Z,998.40
2019-03-13T05:11:06.235Z,998.37
2019-03-13T05:12:06.200Z,998.34
2019-03-13T05:13:06.242Z,998.38
2019-03-13T05:14:06.182Z,998.46
2019-03-13T05:15:06.174Z,998.34
2019-03-13T05:16:06.173Z,998.40
2019-03-13T05:17:06.158Z,998.38
2019-03-13T05:18:06.205Z,998.48
2019-03-13T05:19:06.130Z,998.34
2019-03-13T05:20:06.137Z,998.49
2019-03-13T05:21:06.121Z,998.41
2019-03-13T05:22:06.109Z,998.54
2019-03-13T05:23:06.087Z,998.46
2019-03-13T05:24:06.077Z,998.51
2019-03-13T05:25:06.061Z,998.52
2019-03-13T05:26:06.089Z,998.47
2019-03-13T05:27:06.059Z,998.53
2019-03-13T05:28:06.030Z,998.56
2019-03-13T05:29:06.024Z,998.53
2019-03-13T05:30:06.018Z,998.60
2019-03-13T05:31:06.002Z,998.60
2019-03-13T05:32:06.078Z,998.66
2019-03-13T05:33:05.985Z,998.70
2019-03-13T05:34:05.978Z,998.66
2019-03-13T05:35:05.964Z,998.68
2019-03-13T05:36:05.955Z,998.63
2019-03-13T05:37:05.955Z,998.68
2019-03-13T05:38:05.930Z,998.65
2019-03-13T05:39:05.920Z,998.71
2019-03-13T05:40:05.916Z,998.64
2019-03-13T05:41:05.907Z,998.73
2019-03-13T05:42:05.904Z,998.69
2019-03-13T05:43:05.874Z,998.68
2019-03-13T05:44:05.866Z,998.74
2019-03-13T05:45:08.245Z,998.78
2019-03-13T05:46:05.854Z,998.75
2019-03-13T05:47:05.849Z,998.78
2019-03-13T05:48:05.832Z,998.84
2019-03-13T05:49:05.819Z,998.83
2019-03-13T05:50:05.803Z,998.86
2019-03-13T05:51:05.800Z,998.85
2019-03-13T05:52:05.800Z,998.87
2019-03-13T05:53:05.777Z,998.85
2019-03-13T05:54:05.764Z,998.90
2019-03-13T05:55:05.754Z,998.92
2019-03-13T05:56:05.745Z,998.90
2019-03-13T05:57:05.746Z,998.87
2019-03-13T05:58:05.722Z,998.86
2019-03-13T05:59:05.709Z,998.88
2019-03-13T06:00:05.701Z,998.86
2019-03-13T06:01:05.690Z,998.89
2019-03-13T06:02:05.693Z,998.90
2019-03-13T06:03:05.668Z,998.86
2019-03-13T06:04:05.659Z,998.91
2019-03-13T06:05:05.648Z,998.95
2019-03-13T06:06:05.633Z,999.00
2019-03-13T06:07:05.645Z,998.95
2019-03-13T06:08:05.617Z,999.01
2019-03-13T06:09:05.608Z,999.04
2019-03-13T06:10:05.594Z,999.04
2019-03-13T06:11:05.587Z,999.04
2019-03-13T06:12:05.572Z,999.10
2019-03-13T06:13:05.582Z,999.07
2019-03-13T06:14:05.550Z,999.07
2019-03-13T06:15:05.544Z,999.12
2019-03-13T06:16:05.529Z,999.08
2019-03-13T06:17:05.524Z,999.11
2019-03-13T06:18:05.534Z,999.09
2019-03-13T06:19:05.503Z,999.14
2019-03-13T06:20:05.495Z,999.18
2019-03-13T06:21:05.481Z,999.13
2019-03-13T06:22:05.464Z,999.21
2019-03-13T06:23:05.484Z,999.15
2019-03-13T06:24:05.449Z,999.15
2019-03-13T06:25:05.444Z,999.22
2019-03-13T06:26:05.427Z,999.28
2019-03-13T06:27:05.416Z,999.21
2019-03-13T06:28:05.418Z,999.22
2019-03-13T06:29:05.393Z,999.24
2019-03-13T06:30:05.383Z,999.25
2019-03-13T06:31:05.373Z,999.23
2019-03-13T06:32:05.364Z,999.29
2019-03-13T06:33:05.365Z,999.33
2019-03-13T06:34:05.339Z,999.31
2019-03-13T06:35:05.347Z,999.36
2019-03-13T06:36:05.347Z,999.41
2019-03-13T06:37:05.306Z,999.37
2019-03-13T06:38:05.404Z,999.33
2019-03-13T06:39:05.295Z,999.33
2019-03-13T06:40:05.277Z,999.39
2019-03-13T06:41:05.482Z,999.29
2019-03-13T06:42:05.257Z,999.36
2019-03-13T06:43:05.245Z,999.40
2019-03-13T06:44:05.243Z,999.37
2019-03-13T06:45:05.231Z,999.42
2019-03-13T06:46:05.219Z,999.48
2019-03-13T06:47:05.200Z,999.45
2019-03-13T06:48:05.195Z,999.48
2019-03-13T06:49:05.208Z,999.44
2019-03-13T06:50:05.182Z,999.49
2019-03-13T06:51:05.163Z,999.47
2019-03-13T06:52:05.153Z,999.49
2019-03-13T06:53:05.137Z,999.51
2019-03-13T06:54:05.172Z,999.58
2019-03-13T06:55:05.119Z,999.45
2019-03-13T06:56:05.111Z,999.44
2019-03-13T06:57:05.110Z,999.51
2019-03-13T06:58:05.084Z,999.59
2019-03-13T06:59:05.093Z,999.44
2019-03-13T07:00:05.070Z,999.54
2019-03-13T07:01:05.059Z,999.44
2019-03-13T07:02:05.052Z,999.49
2019-03-13T07:03:05.031Z,999.54
2019-03-13T07:04:05.041Z,999.52
2019-03-13T07:05:05.015Z,999.53
2019-03-13T07:06:05.005Z,999.51
2019-03-13T07:07:04.994Z,999.53
2019-03-13T07:08:04.989Z,999.58
2019-03-13T07:09:04.996Z,999.48
2019-03-13T07:10:04.963Z,999.50
2019-03-13T07:11:04.951Z,999.55
2019-03-13T07:12:04.946Z,999.51
2019-03-13T07:13:04.929Z,999.58
2019-03-13T07:14:04.956Z,999.52
2019-03-13T07:15:04.913Z,999.53
2019-03-13T07:16:04.899Z,999.50
2019-03-13T07:17:04.890Z,999.54
2019-03-13T07:18:04.880Z,999.52
2019-03-13T07:19:04.868Z,999.54
2019-03-13T07:20:04.871Z,999.56
2019-03-13T07:21:04.924Z,999.57
2019-03-13T07:22:04.835Z,999.57
2019-03-13T07:23:04.839Z,999.60
2019-03-13T07:24:04.814Z,999.67
2019-03-13T07:25:04.829Z,999.62
2019-03-13T07:26:04.798Z,999.65
2019-03-13T07:27:04.782Z,999.61
2019-03-13T07:28:04.770Z,999.68
2019-03-13T07:29:12.163Z,999.61
2019-03-13T07:30:05.777Z,999.59
2019-03-13T07:31:04.743Z,999.64
2019-03-13T07:32:04.727Z,999.55
2019-03-13T07:33:04.723Z,999.60
2019-03-13T07:34:04.712Z,999.60
2019-03-13T07:35:04.701Z,999.64
2019-03-13T07:36:04.703Z,999.67
2019-03-13T07:37:04.679Z,999.65
2019-03-13T07:38:04.681Z,999.58
2019-03-13T07:39:04.671Z,999.61
2019-03-13T07:40:04.650Z,999.62
2019-03-13T07:41:04.667Z,999.58
2019-03-13T07:42:04.625Z,999.61
2019-03-13T07:43:04.619Z,999.65
2019-03-13T07:44:04.605Z,999.58
2019-03-13T07:45:04.618Z,999.57
2019-03-13T07:46:04.601Z,999.65
2019-03-13T07:47:04.583Z,999.59
2019-03-13T07:48:04.578Z,999.58
2019-03-13T07:49:04.559Z,999.60
2019-03-13T07:50:04.545Z,999.58
2019-03-13T07:51:04.560Z,999.63
2019-03-13T07:52:04.523Z,999.62
2019-03-13T07:53:04.514Z,999.61
2019-03-13T07:54:04.511Z,999.59
2019-03-13T07:55:04.489Z,999.56
2019-03-13T07:56:04.475Z,999.52
2019-03-13T07:57:04.486Z,999.56
2019-03-13T07:58:04.451Z,999.56
2019-03-13T07:59:04.450Z,999.52
2019-03-13T08:00:04.433Z,999.53
2019-03-13T08:01:04.427Z,999.52
2019-03-13T08:02:04.427Z,999.48
2019-03-13T08:03:04.405Z,999.48
2019-03-13T08:04:05.539Z,999.51
2019-03-13T08:05:04.385Z,999.50
2019-03-13T08:06:04.380Z,999.59
2019-03-13T08:07:04.397Z,999.56
2019-03-13T08:08:04.353Z,999.53
2019-03-13T08:09:04.344Z,999.55
2019-03-13T08:10:04.332Z,999.54
2019-03-13T08:11:04.318Z,999.60
2019-03-13T08:12:04.309Z,999.47
2019-03-13T08:13:04.322Z,999.49
2019-03-13T08:14:04.287Z,999.52
2019-03-13T08:15:04.283Z,999.58
2019-03-13T08:16:04.272Z,999.58
2019-03-13T08:17:04.293Z,999.55
2019-03-13T08:18:04.259Z,999.54
2019-03-13T08:19:04.234Z,999.54
2019-03-13T08:20:04.232Z,999.58
2019-03-13T08:21:04.220Z,999.63
2019-03-13T08:22:04.225Z,999.62
2019-03-13T08:23:04.231Z,999.44
2019-03-13T08:24:04.189Z,999.48
2019-03-13T08:25:04.169Z,999.52
2019-03-13T08:26:04.163Z,999.57
2019-03-13T08:27:04.151Z,999.50
2019-03-13T08:28:04.156Z,999.52
2019-03-13T08:29:04.148Z,999.49
2019-03-13T08:30:04.119Z,999.44
2019-03-13T08:31:04.113Z,999.47
2019-03-13T08:32:04.101Z,999.45
2019-03-13T08:33:04.096Z,999.47
2019-03-13T08:34:04.094Z,999.37
2019-03-13T08:35:04.066Z,999.39
2019-03-13T08:36:04.056Z,999.49
2019-03-13T08:37:04.049Z,999.40
2019-03-13T08:38:04.050Z,999.45
2019-03-13T08:39:04.036Z,999.44
2019-03-13T08:40:04.017Z,999.38
2019-03-13T08:41:04.004Z,999.43
2019-03-13T08:42:03.997Z,999.47
2019-03-13T08:43:03.985Z,999.39
2019-03-13T08:44:04.006Z,999.42
2019-03-13T08:45:03.983Z,999.32
2019-03-13T08:46:03.951Z,999.42
2019-03-13T08:47:03.939Z,999.30
2019-03-13T08:48:03.937Z,999.32
2019-03-13T08:49:03.919Z,999.32
2019-03-13T08:50:03.924Z,999.33
2019-03-13T08:51:03.902Z,999.20
2019-03-13T08:52:03.888Z,999.22
2019-03-13T08:53:03.881Z,999.29
2019-03-13T08:54:03.871Z,999.26
2019-03-13T08:55:03.890Z,999.28
2019-03-13T08:56:03.849Z,999.23
2019-03-13T08:57:03.834Z,999.30
2019-03-13T08:58:03.824Z,999.12
2019-03-13T08:59:03.857Z,999.29
2019-03-13T09:00:03.828Z,999.25
2019-03-13T09:01:03.796Z,999.21
2019-03-13T09:02:03.784Z,999.18
2019-03-13T09:03:03.774Z,999.28
2019-03-13T09:04:03.764Z,999.15
2019-03-13T09:05:03.774Z,999.27
2019-03-13T09:06:03.754Z,999.28
2019-03-13T09:07:03.730Z,999.11
2019-03-13T09:08:03.724Z,999.20
2019-03-13T09:09:03.708Z,999.16
2019-03-13T09:10:03.714Z,999.03
2019-03-13T09:11:03.686Z,998.99
2019-03-13T09:12:03.680Z,999.09
2019-03-13T09:13:03.669Z,999.24
2019-03-13T09:14:03.653Z,999.16
2019-03-13T09:15:03.657Z,999.06
2019-03-13T09:16:03.639Z,999.06
2019-03-13T09:17:03.623Z,999.15
2019-03-13T09:18:03.620Z,999.01
2019-03-13T09:19:03.608Z,999.04
2019-03-13T09:20:03.638Z,999.10
2019-03-13T09:21:03.584Z,999.04
2019-03-13T09:22:03.570Z,999.09
2019-03-13T09:23:04.243Z,999.08
2019-03-13T09:24:03.564Z,999.12
2019-03-13T09:25:11.952Z,999.15
2019-03-13T09:26:03.546Z,999.12
2019-03-13T09:27:03.520Z,999.04
2019-03-13T09:28:03.511Z,999.05
2019-03-13T09:29:03.497Z,999.10
2019-03-13T09:30:03.505Z,999.12
2019-03-13T09:31:03.518Z,999.04
2019-03-13T09:32:03.465Z,998.90
2019-03-13T09:33:03.457Z,999.01
2019-03-13T09:34:03.452Z,998.95
2019-03-13T09:35:03.434Z,998.98
2019-03-13T09:36:03.441Z,998.94
2019-03-13T09:37:03.416Z,998.93
2019-03-13T09:38:03.407Z,998.94
2019-03-13T09:39:03.397Z,998.90
2019-03-13T09:40:03.388Z,998.95
2019-03-13T09:41:03.392Z,998.94
2019-03-13T09:42:03.362Z,998.92
2019-03-13T09:43:03.354Z,998.88
2019-03-13T09:44:03.344Z,998.96
2019-03-13T09:45:03.331Z,998.99
2019-03-13T09:46:03.349Z,999.00
2019-03-13T09:47:03.313Z,998.90
2019-03-13T09:48:03.304Z,998.89
2019-03-13T09:49:03.286Z,998.99
2019-03-13T09:50:03.278Z,999.03
2019-03-13T09:51:03.297Z,998.91
2019-03-13T09:52:03.259Z,998.94
2019-03-13T09:53:03.244Z,998.97
2019-03-13T09:54:03.242Z,998.94
2019-03-13T09:55:04.660Z,998.85
2019-03-13T09:56:03.224Z,998.98
2019-03-13T09:57:03.219Z,998.89
2019-03-13T09:58:03.192Z,998.93
2019-03-13T09:59:03.191Z,999.00
2019-03-13T10:00:03.182Z,998.80
2019-03-13T10:01:03.160Z,998.90
2019-03-13T10:02:03.171Z,998.84
2019-03-13T10:03:03.151Z,998.87
2019-03-13T10:04:03.127Z,998.96
2019-03-13T10:05:03.121Z,998.82
2019-03-13T10:06:03.109Z,998.89
2019-03-13T10:07:03.124Z,998.99
2019-03-13T10:08:03.089Z,998.74
2019-03-13T10:09:03.081Z,998.76
2019-03-13T10:10:03.075Z,998.76
2019-03-13T10:11:03.055Z,998.75
2019-03-13T10:12:03.067Z,998.71
2019-03-13T10:13:03.045Z,998.72
2019-03-13T10:14:03.022Z,998.76
2019-03-13T10:15:03.044Z,998.75
2019-03-13T10:16:03.010Z,998.69
2019-03-13T10:17:10.415Z,998.69
2019-03-13T10:18:03.996Z,998.68
2019-03-13T10:19:02.983Z,998.64
2019-03-13T10:20:02.962Z,998.58
2019-03-13T10:21:02.950Z,998.55
2019-03-13T10:22:02.941Z,998.60
2019-03-13T10:23:02.949Z,998.43
2019-03-13T10:24:02.925Z,998.59
2019-03-13T10:25:02.909Z,998.54
2019-03-13T10:26:02.900Z,998.61
2019-03-13T10:27:02.889Z,998.52
2019-03-13T10:28:02.912Z,998.56
2019-03-13T10:29:02.870Z,998.61
2019-03-13T10:30:02.860Z,998.47
2019-03-13T10:31:02.842Z,998.47
2019-03-13T10:32:02.839Z,998.44
2019-03-13T10:33:02.837Z,998.53
2019-03-13T10:34:02.815Z,998.44
2019-03-13T10:35:02.800Z,998.46
2019-03-13T10:36:02.794Z,998.41
2019-03-13T10:37:02.782Z,998.38
2019-03-13T10:38:13.342Z,998.31
2019-03-13T10:39:03.757Z,998.48
2019-03-13T10:40:02.747Z,998.37
2019-03-13T10:41:02.749Z,998.30
2019-03-13T10:42:02.730Z,998.39
2019-03-13T10:43:02.727Z,998.45
2019-03-13T10:44:02.727Z,998.37
2019-03-13T10:45:02.698Z,998.31
2019-03-13T10:46:02.721Z,998.38
2019-03-13T10:47:02.681Z,998.41
2019-03-13T10:48:02.680Z,998.22
2019-03-13T10:49:02.678Z,998.27
2019-03-13T10:50:02.651Z,998.22
2019-03-13T10:51:02.638Z,998.24
2019-03-13T10:52:02.622Z,998.26
2019-03-13T10:53:02.615Z,998.29
2019-03-13T10:54:02.632Z,998.27
2019-03-13T10:55:02.600Z,998.21
2019-03-13T10:56:02.592Z,998.34
2019-03-13T10:57:02.568Z,998.21
2019-03-13T10:58:02.561Z,998.23
2019-03-13T10:59:02.553Z,998.04
2019-03-13T11:00:02.562Z,998.20
2019-03-13T11:01:02.545Z,998.33
2019-03-13T11:02:02.525Z,998.14
2019-03-13T11:03:02.512Z,998.20
2019-03-13T11:04:02.497Z,998.02
2019-03-13T11:05:02.507Z,998.18
2019-03-13T11:06:02.487Z,998.18
2019-03-13T11:07:02.468Z,998.14
2019-03-13T11:08:02.464Z,998.16
2019-03-13T11:09:02.459Z,998.18
2019-03-13T11:10:02.451Z,998.10
2019-03-13T11:11:02.477Z,998.13
2019-03-13T11:12:02.416Z,998.14
2019-03-13T11:13:02.405Z,998.06
2019-03-13T11:14:14.427Z,998.01
2019-03-13T11:15:03.412Z,998.11
2019-03-13T11:16:02.372Z,998.12
2019-03-13T11:17:02.366Z,998.06
2019-03-13T11:18:02.377Z,998.07
2019-03-13T11:19:02.340Z,998.06
2019-03-13T11:20:02.350Z,998.02
2019-03-13T11:21:02.363Z,998.05
2019-03-13T11:22:02.312Z,997.93
2019-03-13T11:23:02.300Z,998.09
2019-03-13T11:24:02.284Z,998.12
2019-03-13T11:25:02.273Z,998.12
2019-03-13T11:26:02.277Z,998.07
2019-03-13T11:27:02.256Z,998.11
2019-03-13T11:28:02.244Z,998.11
2019-03-13T11:29:02.231Z,998.14
2019-03-13T11:30:02.234Z,998.17
2019-03-13T11:31:02.239Z,998.03
2019-03-13T11:32:02.205Z,998.10
2019-03-13T11:33:02.199Z,998.10
2019-03-13T11:34:02.196Z,998.09
2019-03-13T11:35:02.178Z,997.98
2019-03-13T11:36:02.158Z,998.01
2019-03-13T11:37:02.177Z,998.06
2019-03-13T11:38:02.152Z,998.17
2019-03-13T11:39:02.136Z,998.19
2019-03-13T11:40:02.123Z,998.22
2019-03-13T11:41:02.106Z,998.21
2019-03-13T11:42:02.128Z,998.01
2019-03-13T11:43:02.096Z,997.94
2019-03-13T11:44:02.073Z,997.97
2019-03-13T11:45:02.074Z,997.93
2019-03-13T11:46:02.073Z,997.93
2019-03-13T11:47:02.055Z,997.95
2019-03-13T11:48:02.060Z,998.03
2019-03-13T11:49:02.027Z,998.15
2019-03-13T11:50:02.017Z,997.93
2019-03-13T11:51:02.013Z,998.03
2019-03-13T11:52:02.001Z,998.09
2019-03-13T11:53:01.996Z,998.11
2019-03-13T11:54:01.969Z,998.05
2019-03-13T11:55:01.961Z,998.04
2019-03-13T11:56:01.956Z,998.02
2019-03-13T11:57:01.942Z,997.99
2019-03-13T11:58:01.942Z,998.06
2019-03-13T11:59:01.923Z,997.88
2019-03-13T12:00:01.911Z,998.13
2019-03-13T12:01:01.900Z,998.03
2019-03-13T12:02:01.885Z,998.10
2019-03-13T12:03:01.895Z,997.96
2019-03-13T12:04:01.864Z,998.08
2019-03-13T12:05:01.856Z,998.12
2019-03-13T12:06:01.844Z,998.10
2019-03-13T12:07:01.840Z,998.06
2019-03-13T12:08:01.842Z,998.08
2019-03-13T12:09:01.814Z,998.12
2019-03-13T12:10:01.799Z,997.96
2019-03-13T12:11:01.795Z,998.13
2019-03-13T12:12:01.783Z,998.09
2019-03-13T12:13:01.778Z,998.13
2019-03-13T12:14:01.826Z,998.07
2019-03-13T12:15:01.754Z,998.08
2019-03-13T12:16:01.743Z,998.09
2019-03-13T12:17:01.730Z,998.10
2019-03-13T12:18:01.716Z,998.09
2019-03-13T12:19:01.729Z,998.15
2019-03-13T12:20:01.708Z,998.05
2019-03-13T12:21:01.688Z,998.05
2019-03-13T12:22:01.673Z,998.02
2019-03-13T12:23:01.663Z,998.10
2019-03-13T12:24:01.665Z,998.06
2019-03-13T12:25:01.643Z,998.00
2019-03-13T12:26:03.394Z,998.00
2019-03-13T12:27:01.621Z,997.96
2019-03-13T12:28:01.615Z,998.02